Date,TemperatureHighF,TemperatureAvgF,TemperatureLowF,DewpointHighF,DewpointAvgF,DewpointLowF,HumidityHigh,HumidityAvg,HumidityLow,PressureMaxIn,PressureMinIn,WindSpeedMaxMPH,WindSpeedAvgMPH,GustSpeedMaxMPH,PrecipitationSumIn
2012-1-1,67.6,56.4,38.1,55.0,45.3,35.3,92,68,42,30.15,29.88,2,0,4,0.00
2012-1-2,59.0,44.7,34.1,40.9,23.2,15.6,63,43,27,30.05,29.90,2,0,5,0.00
2012-1-3,34.9,30.1,24.9,20.6,11.0,7.3,62,45,33,30.34,30.02,3,1,6,0.00
2012-1-4,42.9,31.0,19.8,16.8,13.3,9.7,69,49,30,30.41,30.08,1,0,3,0.00
2012-1-5,55.6,43.3,30.9,30.2,25.6,15.7,64,50,31,30.10,30.01,1,0,2,0.00
2012-1-6,65.0,46.9,33.2,36.8,32.0,27.6,81,58,33,30.08,29.95,1,0,1,0.00
2012-1-7,69.5,59.1,45.2,52.8,46.6,33.5,82,64,54,30.03,29.92,0,0,3,0.00
2012-1-8,62.0,56.1,50.4,50.4,44.4,38.6,88,66,48,30.22,30.02,1,0,3,0.02
2012-1-9,52.0,44.6,43.3,45.7,42.7,40.9,97,93,74,30.23,30.04,0,0,2,0.17
2012-1-10,55.9,48.4,44.2,47.1,44.4,42.4,97,87,63,30.11,30.00,0,0,1,0.01
2012-1-11,59.0,57.9,54.1,58.4,56.5,48.1,98,96,79,29.56,29.52,1,0,4,0.29
2012-1-12,58.5,52.3,45.2,49.4,46.1,42.2,90,80,69,29.68,29.54,1,0,6,0.00
2012-1-13,56.6,40.2,31.9,49.5,24.6,18.0,77,54,43,30.06,29.54,2,0,4,0.00
2012-1-14,44.9,35.2,26.1,24.9,21.9,19.6,78,60,39,30.23,30.05,1,0,3,0.00
2012-1-15,45.2,36.0,29.5,29.2,25.4,22.8,82,66,48,30.54,30.10,1,0,5,0.00
2012-1-16,48.6,39.8,25.6,36.2,28.2,21.3,87,64,44,30.59,30.35,1,0,2,0.00
2012-1-17,63.8,54.0,41.1,54.2,47.0,36.6,94,78,66,30.32,29.94,2,0,6,0.20
2012-1-18,53.1,43.3,36.7,51.7,31.6,25.3,95,64,43,30.10,29.91,1,0,6,0.29
2012-1-19,49.2,37.3,28.4,37.8,26.5,21.9,81,66,49,30.23,30.05,0,0,2,0.00
2012-1-20,49.4,42.6,35.3,44.2,39.3,33.2,95,88,73,30.17,30.06,0,0,1,0.10
2012-1-21,64.6,54.3,43.8,56.5,51.6,41.6,98,91,70,30.13,29.88,1,0,3,0.83
2012-1-22,43.6,37.2,34.4,41.4,35.1,32.1,95,92,89,30.34,30.12,1,0,4,0.00
2012-1-23,51.9,45.2,38.0,50.8,44.1,36.4,97,96,94,30.30,30.01,0,0,1,0.01
2012-1-24,61.6,53.2,45.8,55.3,50.9,44.4,98,92,78,30.20,30.02,1,0,3,0.02
2012-1-25,61.9,48.3,36.6,45.2,40.8,35.5,97,78,44,30.31,30.17,1,0,2,0.00
2012-1-26,67.5,53.9,40.2,61.8,50.8,37.6,98,89,80,30.18,29.78,1,0,4,0.00
2012-1-27,70.5,63.1,48.7,62.9,53.0,37.6,94,72,47,30.00,29.60,2,0,7,0.17
2012-1-28,62.0,48.8,34.6,42.5,37.7,29.9,92,67,46,30.18,30.00,1,0,4,0.00
2012-1-29,52.6,43.7,33.5,30.4,22.5,16.9,66,44,26,30.36,30.17,1,0,3,0.00
2012-1-30,59.2,45.2,32.9,31.4,25.4,20.4,68,47,29,30.43,30.26,1,0,2,0.00
2012-1-31,65.2,51.5,36.6,35.0,31.1,24.6,82,48,28,30.40,30.25,1,0,4,0.00
2012-2-1,67.9,58.0,49.6,52.8,46.1,31.7,79,65,49,30.26,30.05,1,0,6,0.00
2012-2-2,69.6,60.1,48.6,57.0,49.3,34.9,97,70,46,30.27,29.98,2,0,4,0.14
2012-2-3,55.9,46.3,38.2,36.8,34.3,31.9,79,64,43,30.47,30.27,2,0,4,0.00
2012-2-4,57.7,47.2,35.7,51.9,42.7,31.7,92,85,76,30.37,30.02,0,0,1,0.00
2012-2-5,52.9,47.6,40.0,51.0,45.9,37.1,97,94,88,30.22,29.94,1,0,3,0.51
2012-2-6,47.7,42.3,36.6,40.2,36.3,33.5,91,80,62,30.28,30.11,0,0,3,0.00
2012-2-7,56.6,46.2,36.7,40.4,36.6,33.5,89,71,43,30.17,30.09,1,0,3,0.00
2012-2-8,54.0,42.6,31.7,40.0,35.3,29.6,95,77,54,30.18,30.05,1,0,2,0.00
2012-2-9,49.7,39.7,31.5,35.2,31.0,27.8,89,73,48,30.28,30.15,1,0,3,0.00
2012-2-10,50.8,41.6,30.3,41.0,35.7,27.9,93,80,61,30.21,29.87,0,0,1,0.00
2012-2-11,49.7,40.4,26.2,40.8,27.7,5.2,97,64,35,30.03,29.69,3,1,9,0.00
2012-2-12,41.1,31.3,21.5,15.6,9.7,3.9,52,40,31,30.25,30.03,3,1,5,0.00
2012-2-13,50.6,38.9,24.6,25.5,19.2,14.5,70,47,26,30.28,30.13,1,0,3,0.00
2012-2-14,59.9,47.0,36.0,41.9,33.5,25.8,77,61,39,30.14,29.99,1,0,3,0.00
2012-2-15,62.8,51.1,41.3,42.3,37.9,34.3,91,62,35,30.26,30.06,1,0,1,0.00
2012-2-16,55.6,48.4,41.8,54.5,44.7,36.3,97,87,68,30.26,29.97,1,0,3,0.12
2012-2-17,61.1,52.5,43.7,50.2,44.4,38.5,97,76,51,30.09,29.99,1,0,2,0.00
2012-2-18,65.9,53.0,40.7,43.7,39.6,35.6,87,64,36,30.11,29.94,0,0,2,0.00
2012-2-19,53.4,41.4,34.0,46.9,39.0,32.5,96,92,70,29.92,29.68,2,1,6,0.61
2012-2-20,50.8,40.2,33.3,33.9,31.7,28.9,95,74,44,30.33,29.86,2,0,6,0.01
2012-2-21,59.9,44.3,28.5,48.4,38.1,25.9,94,80,60,30.33,30.00,1,0,5,0.00
2012-2-22,69.0,57.5,46.0,55.6,49.0,43.8,95,75,51,30.00,29.59,1,0,4,0.00
2012-2-23,76.5,62.5,47.7,61.1,54.6,45.8,98,77,52,29.69,29.57,2,0,6,0.03
2012-2-24,76.0,65.7,51.5,65.7,59.5,30.8,94,81,45,29.82,29.52,2,0,6,0.24
2012-2-25,54.3,46.6,38.3,30.6,24.6,20.0,56,43,31,30.32,29.83,2,1,11,0.00
2012-2-26,51.8,39.4,27.5,28.8,23.2,19.2,80,54,33,30.50,30.31,1,0,4,0.00
2012-2-27,50.9,45.0,36.5,49.2,41.4,26.6,99,87,66,30.45,30.31,0,0,3,0.03
2012-2-28,65.3,53.4,46.1,47.7,44.3,39.0,97,75,38,30.41,30.27,1,0,2,0.00
2012-2-29,74.4,59.7,45.7,63.6,53.0,40.5,94,79,67,30.29,29.84,1,0,3,0.02
2012-3-1,80.6,70.1,63.2,63.6,58.6,50.4,90,70,37,29.85,29.70,1,0,4,0.00
2012-3-2,63.1,57.5,48.5,62.5,55.5,43.3,98,93,79,29.98,29.68,0,0,2,0.07
2012-3-3,66.0,59.9,53.6,62.9,58.7,52.7,98,96,88,29.73,29.59,1,0,4,1.49
2012-3-4,54.0,47.5,36.5,52.5,37.0,23.4,97,71,38,30.02,29.65,2,0,5,0.60
2012-3-5,55.9,44.1,32.4,34.8,26.6,20.1,80,53,32,30.49,29.93,3,1,6,0.00
2012-3-6,53.6,40.5,27.4,32.8,26.5,21.4,83,59,37,30.67,30.49,1,0,4,0.00
2012-3-7,62.9,44.5,33.9,51.1,39.0,30.4,91,82,64,30.65,30.43,0,0,4,0.00
2012-3-8,74.2,61.4,51.0,57.5,53.0,49.0,96,76,47,30.43,30.12,1,0,5,0.00
2012-3-9,60.8,55.9,39.7,59.6,48.6,35.8,97,79,46,30.28,30.05,1,0,3,0.12
2012-3-10,56.1,45.4,35.3,36.0,33.3,29.0,89,65,39,30.51,30.28,2,0,4,0.00
2012-3-11,63.1,48.0,32.7,35.9,30.2,23.1,88,55,23,30.57,30.42,1,0,4,0.00
2012-3-12,72.8,56.7,39.4,52.6,45.6,35.8,92,69,43,30.44,30.24,1,0,5,0.00
2012-3-13,75.8,65.5,58.5,62.3,57.4,51.3,91,75,61,30.24,30.09,1,0,3,0.02
2012-3-14,82.0,67.6,56.7,61.9,56.9,54.4,98,72,41,30.21,30.11,1,0,3,0.00
2012-3-15,84.4,68.5,56.7,63.4,56.4,52.6,97,69,37,30.24,30.14,1,0,5,0.00
2012-3-16,80.5,69.7,62.0,64.6,60.5,55.0,95,74,47,30.20,30.06,1,0,5,0.08
2012-3-17,79.1,67.4,58.9,64.5,61.1,57.8,98,82,55,30.20,30.11,2,0,5,0.12
2012-3-18,67.4,63.2,59.4,62.1,60.5,57.4,97,91,82,30.29,30.17,1,0,2,0.05
2012-3-19,73.7,62.7,52.7,64.9,59.3,51.6,98,89,72,30.23,30.09,0,0,2,0.22
2012-3-20,80.8,68.4,58.4,65.5,60.8,57.3,98,79,50,30.22,30.08,0,0,1,0.18
2012-3-21,79.2,68.4,62.0,65.4,62.4,60.0,96,82,56,30.27,30.14,0,0,2,0.13
2012-3-22,81.3,68.7,57.5,66.2,61.4,56.4,98,80,48,30.24,30.10,0,0,2,0.00
2012-3-23,83.0,71.3,61.3,66.7,62.6,59.8,98,76,49,30.13,29.93,1,0,2,0.00
2012-3-24,75.4,66.9,59.8,69.9,63.9,58.7,98,90,77,29.97,29.73,1,0,1,0.38
2012-3-25,70.8,61.6,58.1,60.9,58.4,56.7,98,90,63,29.78,29.64,1,0,5,0.23
2012-3-26,77.0,66.0,58.1,58.8,52.8,37.1,98,67,37,30.05,29.75,2,0,5,0.10
2012-3-27,62.1,52.6,44.2,36.8,31.3,20.7,62,45,26,30.32,30.06,1,0,2,0.00
2012-3-28,78.7,61.4,44.4,62.2,51.2,35.2,89,70,56,30.26,29.85,1,0,4,0.00
2012-3-29,84.3,72.8,62.4,58.1,52.2,44.5,76,51,27,29.89,29.80,2,0,6,0.00
2012-3-30,81.0,66.5,53.5,63.7,55.8,44.4,89,69,50,30.00,29.82,1,0,3,0.06
2012-3-31,75.1,66.0,61.7,66.1,62.2,59.8,99,89,64,29.85,29.68,1,0,2,0.78
2012-4-1,69.7,62.0,54.5,61.0,55.1,51.2,94,79,57,29.91,29.70,1,0,4,0.00
2012-4-2,78.1,66.7,57.4,63.1,55.3,39.1,92,69,45,29.91,29.61,2,0,4,0.00
2012-4-3,76.5,62.3,45.4,56.8,47.7,40.1,95,62,35,30.01,29.85,1,0,4,0.00
2012-4-4,85.5,71.6,63.2,65.2,61.5,56.8,89,72,47,29.87,29.58,1,0,3,0.02
2012-4-5,66.4,59.8,48.8,63.4,53.8,45.3,98,82,59,29.84,29.61,2,0,5,0.26
2012-4-6,63.0,51.7,45.2,47.1,41.9,35.5,94,72,38,30.06,29.78,2,0,6,0.03
2012-4-7,67.1,52.1,37.2,41.3,34.7,28.1,88,57,26,30.25,30.06,1,0,4,0.00
2012-4-8,77.3,58.7,42.3,43.4,38.9,29.7,87,53,22,30.13,29.90,1,0,4,0.00
2012-4-9,75.6,62.8,51.0,44.3,38.6,31.6,66,43,24,30.05,29.83,1,0,4,0.00
2012-4-10,77.1,63.7,49.3,48.2,40.9,35.1,69,46,26,29.95,29.75,1,0,7,0.00
2012-4-11,65.0,54.7,42.4,48.1,30.4,26.8,59,40,28,30.11,29.76,2,0,6,0.00
2012-4-12,63.4,49.3,35.5,36.5,31.2,27.1,74,52,31,30.20,30.10,1,0,4,0.00
2012-4-13,67.7,50.9,39.5,42.4,37.5,33.9,86,62,33,30.26,30.14,0,0,1,0.00
2012-4-14,76.9,61.4,43.6,55.0,45.7,38.9,90,60,29,30.33,30.16,1,0,5,0.00
2012-4-15,82.9,69.5,58.5,62.9,59.4,54.9,93,72,48,30.21,30.11,1,0,4,0.00
2012-4-16,84.6,71.8,60.8,63.0,59.5,56.7,88,67,44,30.19,30.06,1,0,3,0.00
2012-4-17,86.3,74.1,63.5,64.2,61.1,58.8,86,66,43,30.14,30.01,1,0,3,0.00
2012-4-18,74.7,67.3,56.0,62.2,58.3,52.8,93,74,57,30.11,29.97,1,0,3,0.45
2012-4-19,63.4,58.3,53.6,57.7,54.6,51.3,94,88,79,30.07,29.99,0,0,2,0.01
2012-4-20,73.3,63.0,54.4,62.4,57.6,52.2,96,83,65,30.01,29.83,0,0,1,0.00
2012-4-21,83.8,69.7,59.3,66.5,62.1,57.5,96,79,48,29.85,29.66,1,0,5,0.00
2012-4-22,67.9,59.1,50.3,64.7,57.4,48.9,97,94,87,29.69,29.42,1,0,3,1.41
2012-4-23,54.0,48.7,44.9,48.8,41.7,37.0,100,78,56,29.71,29.48,2,0,5,0.05
2012-4-24,65.3,53.0,42.2,40.5,34.5,28.5,85,53,27,29.79,29.68,2,0,5,0.00
2012-4-25,69.5,55.7,46.9,53.9,47.1,37.1,94,74,51,29.97,29.80,0,0,3,0.06
2012-4-26,80.7,67.1,56.8,63.0,58.5,53.0,93,75,50,29.88,29.75,1,0,4,0.00
2012-4-27,80.2,70.8,62.2,63.9,60.2,49.3,91,70,54,30.06,29.80,0,0,2,0.00
2012-4-28,65.7,61.8,57.1,58.6,54.6,49.6,88,78,56,30.15,30.03,1,0,6,0.00
2012-4-29,74.7,63.7,56.9,64.7,57.2,51.8,89,80,68,30.18,30.08,1,0,3,0.00
2012-4-30,81.3,70.1,61.3,68.2,64.2,60.2,97,83,61,30.23,30.10,0,0,3,0.00
2012-5-1,87.8,75.9,66.6,67.9,65.6,64.1,94,73,47,30.16,30.01,1,0,3,0.00
2012-5-2,91.0,78.2,67.3,71.6,67.9,65.2,94,72,50,30.12,30.01,0,0,2,0.00
2012-5-3,92.8,79.4,66.5,69.4,66.3,61.8,94,67,41,30.11,30.00,1,0,2,0.00
2012-5-4,90.2,77.4,62.7,71.0,65.9,59.4,92,69,46,30.04,29.88,1,0,2,0.00
2012-5-5,89.1,76.3,68.2,71.6,66.6,63.1,97,74,48,29.89,29.72,1,0,3,0.77
2012-5-6,75.8,69.4,64.5,67.7,65.7,62.3,98,89,72,30.00,29.81,1,0,3,0.05
2012-5-7,79.4,68.6,57.9,66.2,61.6,56.5,96,80,57,30.04,29.92,1,0,3,0.00
2012-5-8,80.3,70.1,59.6,64.9,61.1,57.3,94,74,57,30.00,29.82,0,0,2,0.00
2012-5-9,79.4,68.3,60.0,70.5,64.3,58.9,96,87,72,29.87,29.63,1,0,2,0.98
2012-5-10,72.6,63.7,53.8,58.8,52.7,47.9,96,70,44,29.93,29.68,1,0,6,0.01
2012-5-11,74.5,62.5,51.0,51.2,47.1,42.6,92,61,33,30.20,29.94,1,0,3,0.00
2012-5-12,77.9,65.5,49.6,57.7,51.6,45.8,89,63,41,30.32,30.20,1,0,2,0.00
2012-5-13,73.7,65.7,56.4,64.5,60.4,53.8,95,83,69,30.24,30.12,1,0,3,0.11
2012-5-14,76.7,67.3,62.0,68.3,64.3,60.9,98,91,71,30.11,29.92,0,0,1,0.22
2012-5-15,83.6,72.7,65.4,71.7,68.0,64.8,99,87,59,29.98,29.87,0,0,1,0.31
2012-5-16,82.8,72.1,65.0,69.6,66.8,63.8,98,84,61,29.94,29.84,0,0,2,0.18
2012-5-17,68.2,66.3,64.0,65.8,64.5,62.5,95,94,91,29.92,29.87,0,0,1,0.00
2012-7-12,73.2,71.6,70.9,70.6,70.1,69.7,97,95,91,30.15,30.12,0,0,1,0.22
2012-7-13,83.0,74.9,71.0,76.7,73.2,70.1,99,94,80,30.17,30.11,0,0,3,0.08
2012-7-14,92.0,80.1,73.4,77.2,74.4,72.3,99,84,55,30.20,30.09,0,0,3,0.00
2012-7-15,93.3,81.4,72.5,75.3,73.2,70.5,97,78,50,30.18,30.03,0,0,4,0.00
2012-7-16,89.3,79.2,74.4,77.1,73.8,71.5,94,84,66,30.07,29.90,0,0,2,0.00
2012-7-17,94.4,81.4,70.4,78.8,74.2,68.9,96,80,58,29.94,29.85,0,0,2,0.00
2012-7-18,94.3,84.1,74.2,78.7,74.9,72.0,95,75,54,29.97,29.88,1,0,5,0.00
2012-7-19,94.2,82.2,72.9,77.2,70.7,-99.9,94,73,56,30.00,29.89,1,-22,4,0.23
2012-7-20,88.8,77.1,72.6,78.9,74.3,71.4,98,91,69,29.94,29.86,0,0,2,0.36
2012-7-21,88.0,76.4,73.1,80.5,74.3,72.1,99,94,73,30.06,29.91,0,0,2,0.74
2012-7-22,87.1,76.8,72.9,79.4,74.6,72.0,99,93,76,30.13,30.04,0,0,2,0.55
2012-7-23,95.3,82.2,74.0,80.5,75.4,70.3,99,82,54,30.15,29.97,1,0,4,0.03
2012-7-24,96.8,82.9,73.7,79.5,75.7,71.6,95,81,55,29.99,29.80,2,0,4,0.29
2012-7-25,87.9,81.1,71.9,74.5,72.4,69.3,92,76,58,29.93,29.87,0,0,1,0.00
2012-7-26,98.2,85.4,74.8,80.6,76.4,72.9,97,76,54,29.89,29.75,1,0,1,0.00
2012-7-27,99.1,87.3,75.7,79.8,76.9,72.0,90,73,50,29.91,29.78,1,0,3,0.03
2012-7-28,91.2,81.5,73.9,78.2,74.6,71.7,95,81,61,29.97,29.86,0,0,3,0.01
2012-7-29,91.3,80.4,71.5,75.0,72.0,70.3,98,77,54,29.98,29.87,1,0,2,0.07
2012-7-30,86.6,76.3,70.5,77.7,71.5,68.3,96,86,70,29.98,29.91,1,0,3,0.00
2012-7-31,86.7,77.3,71.3,76.0,72.4,69.8,98,86,66,29.96,29.85,0,0,2,0.00
2012-8-1,89.2,79.1,71.1,74.9,72.1,69.7,97,80,60,29.90,29.80,0,0,2,0.05
2012-8-2,90.3,75.5,69.1,79.9,72.1,67.0,97,90,62,29.95,29.83,1,0,2,0.26
2012-8-3,92.0,78.8,68.4,77.7,71.8,66.6,98,80,58,30.06,29.90,0,0,2,0.21
2012-8-4,92.7,81.5,72.8,76.6,73.5,71.5,97,78,52,30.18,30.04,0,0,6,0.00
2012-8-5,86.2,79.2,73.5,78.6,74.5,72.0,97,86,70,30.19,30.09,0,0,3,0.11
2012-8-6,91.6,80.1,72.7,76.7,73.5,71.2,96,81,54,30.12,29.97,0,0,2,0.00
2012-8-7,85.7,76.3,73.4,77.9,73.7,71.8,98,92,73,30.03,29.94,0,0,1,0.55
2012-8-8,85.9,76.3,71.3,77.6,73.4,69.0,99,91,70,29.99,29.91,0,0,2,0.38
2012-8-9,87.4,77.2,67.3,76.3,71.9,66.4,98,85,65,29.98,29.84,0,0,1,0.00
2012-8-10,82.4,77.3,73.7,75.1,73.0,70.0,93,87,76,29.86,29.79,0,0,3,0.00
2012-8-11,88.3,77.4,73.0,77.2,73.4,70.2,97,88,69,29.92,29.84,1,0,4,0.02
2012-8-12,85.7,77.2,71.4,75.4,72.1,69.6,96,85,68,29.98,29.90,0,0,1,0.00
2012-8-13,89.7,78.9,70.2,75.2,70.6,66.5,97,77,52,30.01,29.91,0,0,1,0.00
2012-8-14,91.7,79.9,68.5,73.7,69.2,65.8,94,72,48,29.93,29.83,0,0,3,0.00
2012-8-15,88.7,79.5,73.0,76.1,72.9,69.7,92,81,62,29.91,29.83,0,0,1,0.01
2012-8-16,87.1,76.6,68.3,73.5,70.0,66.8,96,81,60,29.99,29.90,1,0,3,0.00
2012-8-17,91.4,78.5,67.7,73.6,69.3,65.9,96,76,47,29.97,29.78,1,0,2,0.16
2012-8-18,87.6,77.0,68.8,73.5,70.6,67.9,98,82,59,29.88,29.78,0,0,2,0.01
2012-8-19,77.5,73.5,70.7,74.3,71.5,69.4,98,93,85,29.87,29.78,0,0,1,0.71
2012-8-20,80.2,72.8,68.7,71.7,69.5,68.0,99,90,70,29.94,29.81,0,0,1,0.36
2012-8-21,79.8,74.6,70.2,73.5,71.0,69.0,97,89,75,30.03,29.92,0,0,0,0.00
2012-8-22,82.7,75.5,70.7,72.3,70.8,68.9,98,86,65,30.08,30.00,0,0,0,0.00
2012-8-23,83.5,75.1,69.0,71.6,69.2,67.5,97,83,62,30.10,30.03,0,0,0,0.00
2012-8-24,74.2,70.9,68.4,70.7,68.1,64.5,98,91,82,30.11,30.05,0,0,0,0.15
2012-8-25,77.4,69.2,62.6,68.1,65.0,61.6,97,87,70,30.10,30.04,0,0,0,0.23
2012-8-26,85.8,72.9,61.4,71.3,66.3,60.2,98,81,58,30.16,30.05,0,0,0,0.00
2012-8-27,87.7,77.5,69.8,78.0,73.2,68.7,98,87,66,30.10,29.98,0,0,0,0.09
2012-8-28,82.7,76.7,72.8,77.4,74.3,71.6,98,93,81,30.00,29.90,0,0,0,0.09
2012-8-29,85.8,77.9,73.0,76.4,73.7,72.4,98,88,68,29.98,29.88,0,0,0,0.00
2012-8-30,87.3,78.0,72.3,76.5,73.3,70.6,98,86,67,30.13,29.97,0,0,0,0.00
2012-8-31,92.3,80.3,70.0,77.2,73.2,68.7,98,80,58,30.19,30.05,0,0,0,0.00
2012-9-1,94.5,81.2,74.0,78.4,74.5,72.5,97,81,55,30.09,29.99,0,0,0,0.02
2012-9-2,89.6,78.4,73.2,79.2,74.7,70.7,96,89,69,30.01,29.89,0,0,0,0.46
2012-9-3,91.8,80.5,73.1,78.5,74.5,71.8,98,83,57,30.01,29.91,0,0,0,0.00
2012-9-4,90.3,79.8,72.4,75.1,72.5,70.6,98,80,57,30.00,29.88,0,0,0,0.00
2012-9-5,90.0,81.1,74.4,75.8,73.4,70.6,95,79,59,29.93,29.83,0,0,0,0.00
2012-9-6,90.0,78.9,72.9,78.7,74.1,71.7,97,86,62,29.92,29.83,0,0,0,0.13
2012-9-7,83.6,76.2,71.8,73.4,71.6,70.1,98,87,65,29.95,29.83,0,0,0,0.00
2012-9-8,91.4,78.8,72.1,78.1,73.2,69.8,98,84,58,29.84,29.66,0,0,0,0.04
2012-9-9,79.2,70.4,63.3,70.9,63.3,58.1,97,80,53,29.94,29.77,0,0,0,0.56
2012-9-10,79.4,67.7,57.1,60.3,57.8,55.0,94,73,48,30.13,29.94,0,0,0,0.00
2012-9-11,78.3,66.9,54.9,59.5,55.9,52.8,96,70,46,30.27,30.13,0,0,0,0.00
2012-9-12,78.8,67.2,54.1,58.6,55.9,52.3,96,69,46,30.33,30.24,0,0,0,0.00
2012-9-13,81.3,68.0,54.7,64.8,58.4,52.7,97,74,38,30.32,30.19,0,0,0,0.00
2012-9-14,80.9,71.9,62.6,69.9,66.2,61.6,98,83,63,30.22,30.10,0,0,0,0.00
2012-9-15,83.3,72.4,61.8,70.1,65.8,60.6,98,81,59,30.14,30.05,0,0,0,0.00
2012-9-16,73.8,68.1,63.0,65.7,63.4,60.9,93,85,73,30.13,30.05,0,0,0,0.06
2012-9-17,83.7,72.2,64.6,72.6,67.7,63.1,98,87,64,30.08,29.92,0,0,0,0.04
2012-9-18,82.3,73.9,68.5,76.2,72.0,67.6,98,94,80,29.92,29.70,1,0,2,0.44
2012-9-19,70.8,67.2,62.6,69.1,62.3,55.5,99,85,62,30.10,29.80,1,0,4,0.00
2012-9-20,75.3,65.4,56.2,63.5,58.6,54.2,94,80,58,30.14,30.03,1,0,3,0.00
2012-9-21,80.5,67.7,55.8,64.9,60.3,54.4,97,79,51,30.08,29.97,0,0,1,0.00
2012-9-22,85.9,73.7,62.6,69.7,65.6,60.8,97,78,56,30.00,29.87,1,0,3,0.00
2012-9-23,77.0,69.5,61.8,68.4,53.8,43.8,88,60,32,30.08,29.92,1,0,3,0.00
2012-9-24,73.1,53.2,50.7,53.6,30.0,-99.9,94,60,46,30.19,30.08,1,-137,4,0.00
2012-9-25,-200.0,0.0,200.0,-99.9,-99.9,-99.9,0,0,100,0.00,40.00,0,-999,0,0.00
2012-9-26,75.7,21.0,66.0,64.8,-51.1,-99.9,84,23,69,30.17,-32.77,0,-699,0,0.00
2012-9-27,84.9,70.9,58.6,68.9,62.5,56.6,98,77,45,30.18,30.05,1,0,2,0.00
2012-9-28,85.5,73.2,63.3,69.8,65.0,61.3,96,78,49,30.08,29.94,1,0,1,0.00
2012-9-29,71.8,67.8,63.1,67.9,64.5,61.9,97,89,82,29.98,29.85,0,0,2,0.22
2012-9-30,70.5,64.2,60.2,62.6,61.0,59.3,98,90,74,29.91,29.83,0,0,1,0.01
2012-10-1,70.8,65.6,59.5,69.1,63.6,58.2,98,93,86,29.90,29.82,0,0,1,0.21
2012-10-2,86.8,76.8,70.0,78.6,74.2,69.1,100,92,69,29.94,29.77,0,0,1,0.48
2012-10-3,85.1,77.7,73.7,76.6,73.7,70.8,99,88,65,30.14,29.94,0,0,1,0.00
2012-10-4,76.1,72.3,67.1,70.8,68.0,65.0,94,87,74,30.21,30.12,0,0,1,0.04
2012-10-5,77.9,68.7,62.5,65.1,62.9,58.2,97,83,53,30.15,29.99,0,0,0,0.00
2012-10-6,83.7,70.8,59.3,67.3,62.6,57.9,99,78,49,29.99,29.84,0,0,2,0.00
2012-10-7,67.9,59.9,53.7,63.9,55.0,50.8,91,84,74,30.11,29.92,1,0,3,0.01
2012-10-8,53.6,51.5,49.1,50.7,49.0,47.1,97,91,81,30.18,30.08,1,0,5,0.25
2012-10-9,55.7,52.1,49.0,54.2,51.1,48.2,98,96,92,30.13,30.05,0,0,1,0.01
2012-10-10,70.1,60.2,53.1,57.5,54.2,51.7,97,82,58,30.08,29.96,1,0,3,0.00
2012-10-11,66.1,56.1,46.7,52.6,47.3,43.6,90,74,52,30.28,30.09,1,0,3,0.00
2012-10-12,72.3,57.7,44.3,55.3,49.3,42.4,96,76,48,30.29,30.13,0,0,1,0.00
2012-10-13,67.2,56.6,44.6,53.3,47.6,41.1,88,73,53,30.44,30.28,1,0,4,0.00
2012-10-14,77.1,60.4,45.1,63.7,54.2,43.8,97,82,53,30.31,30.00,0,0,3,0.00
2012-10-15,78.9,66.8,56.7,70.2,62.9,54.0,94,88,69,30.01,29.69,1,0,1,0.24
2012-10-16,68.2,57.6,48.3,54.0,47.7,44.0,91,71,46,29.94,29.81,0,0,2,0.00
2012-10-17,68.6,56.3,46.0,54.9,49.5,44.1,96,80,52,30.00,29.90,0,0,2,0.00
2012-10-18,78.4,62.5,47.8,69.0,58.3,46.0,98,87,67,29.93,29.75,0,0,2,0.00
2012-10-19,77.5,67.4,56.0,66.0,57.2,45.4,98,74,34,29.77,29.67,1,0,4,0.04
2012-10-20,70.8,59.6,48.8,51.9,47.7,44.6,88,67,41,29.93,29.74,1,0,2,0.00
2012-10-21,66.5,55.7,45.3,48.8,44.8,41.7,88,69,43,30.13,29.92,0,0,2,0.00
2012-10-22,72.6,56.5,42.4,52.6,46.7,40.3,95,73,42,30.22,30.11,0,0,2,0.00
2012-10-23,77.4,60.9,46.4,56.7,50.8,44.0,94,72,42,30.18,30.08,0,0,3,0.00
2012-10-24,79.3,64.0,50.8,61.5,55.1,48.8,96,75,46,30.18,30.06,0,0,2,0.00
2012-10-25,79.8,65.3,51.4,64.8,57.7,49.7,96,78,55,30.14,30.05,0,0,2,0.00
2012-10-26,70.1,63.2,54.9,65.1,60.1,53.5,98,90,83,30.08,29.86,0,0,2,0.00
2012-10-27,66.6,65.4,63.5,63.7,60.6,56.9,92,85,78,29.86,29.61,1,0,5,0.00
2012-10-28,64.3,61.0,57.1,56.9,52.8,50.6,83,75,64,29.61,29.52,2,0,7,0.00
2012-10-29,57.4,50.0,42.8,51.3,42.1,37.2,88,74,65,29.54,29.36,2,1,6,0.01
2012-10-30,52.4,46.8,42.4,39.9,37.2,34.1,88,69,55,29.62,29.33,1,0,6,0.00
2012-10-31,56.8,48.3,39.5,42.1,37.9,34.5,85,68,51,29.76,29.61,1,0,5,0.00
2012-11-1,59.0,48.3,39.0,41.1,38.5,35.2,88,70,48,29.84,29.73,2,0,6,0.00
2012-11-2,67.2,50.6,37.0,43.4,37.6,31.1,80,63,41,29.94,29.77,1,0,4,0.00
2012-11-3,60.7,47.6,36.9,40.4,35.8,31.6,83,66,40,30.10,29.94,1,0,4,0.00
2012-11-4,58.9,49.7,43.3,46.5,41.6,36.2,88,74,62,30.06,29.93,1,0,3,0.01
2012-11-5,55.5,46.5,40.1,43.2,38.8,34.1,93,76,52,30.09,29.97,1,0,2,0.00
2012-11-6,48.0,41.2,34.4,37.2,34.1,30.9,90,76,65,30.10,29.89,1,0,2,0.00
2012-11-7,53.7,44.2,36.0,38.8,35.1,31.5,86,71,51,29.93,29.81,1,0,2,0.00
2012-11-8,59.6,45.6,33.4,35.8,30.0,23.4,92,60,25,30.09,29.92,1,0,4,0.00
2012-11-9,64.1,49.3,35.4,40.1,33.1,26.6,74,55,35,30.25,30.09,0,0,2,0.00
2012-11-10,71.5,52.9,35.9,46.2,38.2,32.4,89,62,30,30.37,30.23,1,0,2,0.00
2012-11-11,72.6,56.5,40.9,56.8,48.0,37.3,94,75,54,30.47,30.36,0,0,2,0.00
2012-11-12,74.6,63.0,50.4,63.2,57.9,48.5,97,85,65,30.40,30.16,1,0,3,0.00
2012-11-13,62.2,53.1,45.0,60.6,50.4,40.1,96,91,78,30.37,30.13,2,0,5,0.02
2012-11-14,51.6,45.2,36.7,40.1,35.9,31.5,85,71,53,30.44,30.33,1,0,5,0.00
2012-11-15,44.5,42.2,38.7,43.7,38.9,34.1,98,89,72,30.34,30.18,1,0,3,0.05
2012-11-16,55.3,47.0,39.9,44.7,41.9,36.1,98,83,60,30.35,30.22,1,0,3,0.00
2012-11-17,56.0,45.5,34.1,43.9,38.2,31.8,92,76,60,30.43,30.35,1,0,4,0.00
2012-11-18,56.2,50.9,45.4,50.0,46.0,39.5,91,83,76,30.40,30.27,1,0,4,0.01
2012-11-19,57.9,53.0,49.4,50.7,47.3,44.8,87,81,75,30.27,30.12,1,0,4,0.00
2012-11-20,58.6,51.0,43.2,49.1,45.9,41.3,93,83,68,30.14,30.02,0,0,3,0.00
2012-11-21,58.7,47.1,38.1,45.8,40.1,34.9,97,79,52,30.15,30.06,1,0,3,0.00
2012-11-22,60.4,45.4,35.5,35.8,32.3,28.9,89,64,31,30.22,30.11,1,0,3,0.00
2012-11-23,64.7,48.4,31.4,44.3,36.5,27.9,91,66,38,30.15,29.86,1,0,3,0.00
2012-11-24,52.6,45.7,32.4,42.2,28.6,21.1,71,52,38,30.12,29.85,2,0,5,0.00
2012-11-25,51.3,37.5,25.9,28.5,23.7,19.7,78,59,36,30.19,30.03,1,0,2,0.00
2012-11-26,63.3,45.9,30.5,34.6,30.3,26.3,95,58,29,30.20,30.08,0,0,2,0.00
2012-11-27,56.8,47.4,41.0,48.0,40.8,31.9,94,79,59,30.20,30.08,0,0,2,0.06
2012-11-28,51.4,42.2,33.0,42.3,35.1,29.3,93,77,51,30.38,30.19,1,0,3,0.00
2012-11-29,54.9,40.0,26.7,36.6,30.9,24.4,93,73,44,30.47,30.36,0,0,3,0.00
2012-11-30,60.8,45.3,31.3,42.8,36.4,28.4,94,73,45,30.40,30.28,0,0,1,0.00
2012-12-1,64.8,49.3,35.2,49.5,41.5,32.8,95,76,50,30.40,30.29,0,0,2,0.00
2012-12-2,67.7,52.7,39.3,53.9,47.4,37.2,97,83,60,30.39,30.24,0,0,1,0.00
2012-12-3,73.0,60.7,52.5,61.0,54.7,51.4,100,82,57,30.28,30.20,1,0,2,0.00
2012-12-4,71.0,57.6,49.2,60.3,53.7,47.8,98,88,64,30.31,30.17,0,0,1,0.00
2012-12-5,68.8,59.9,53.7,59.9,54.7,46.1,97,84,71,30.17,30.07,1,0,2,0.00
2012-12-6,53.5,47.9,42.4,46.8,39.0,35.7,89,72,60,30.30,30.16,2,0,4,0.00
2012-12-7,59.6,51.8,46.0,52.8,45.5,37.2,96,79,69,30.18,29.97,0,0,4,0.01
2012-12-8,62.5,54.6,51.5,55.9,52.2,49.7,98,92,79,30.04,29.95,0,0,4,0.00
2012-12-9,71.7,61.1,52.0,64.6,58.3,50.6,98,91,77,30.12,29.96,1,0,4,0.00
2012-12-10,70.4,65.5,63.0,64.9,61.5,59.1,99,88,70,29.96,29.69,1,0,4,0.00
2012-12-11,67.4,60.8,52.1,59.9,52.5,41.8,96,75,55,30.09,29.71,1,0,4,0.00
2012-12-12,52.0,44.7,38.6,45.4,40.4,36.5,95,85,71,30.29,30.09,2,0,5,0.45
2012-12-13,50.2,41.9,37.3,41.5,37.7,34.6,96,85,70,30.35,30.21,2,0,4,0.16
2012-12-14,55.2,39.9,30.4,37.3,32.4,28.8,95,77,40,30.36,30.22,0,0,4,0.00
2012-12-15,56.9,44.5,31.9,47.0,37.2,29.3,92,77,49,30.26,30.08,0,0,1,0.03
2012-12-16,56.2,52.6,48.7,55.9,51.8,46.7,99,97,91,30.08,29.88,0,0,1,0.32
2012-12-17,62.4,57.5,55.2,58.5,56.3,54.9,99,96,86,29.88,29.58,1,0,3,0.56
2012-12-18,62.9,55.7,43.5,57.0,47.9,36.1,96,77,47,29.90,29.65,2,0,5,0.00
2012-12-19,65.1,49.2,37.2,45.2,38.9,33.1,88,70,44,30.09,29.89,0,0,3,0.00
2012-12-20,63.7,52.7,41.0,62.4,48.5,38.3,97,86,69,30.13,29.47,2,0,15,0.38
2012-12-21,60.4,44.1,38.4,58.4,31.4,24.3,93,61,45,29.82,29.50,3,1,7,0.01
2012-12-22,49.5,40.2,33.9,28.2,24.9,22.6,71,55,37,30.09,29.82,2,0,5,0.00
2012-12-23,53.6,40.7,28.4,33.6,27.2,22.4,81,60,36,30.15,30.02,1,0,3,0.00
2012-12-24,54.1,47.8,43.7,47.4,39.1,33.1,91,72,54,30.04,29.88,1,0,2,0.04
2012-12-25,59.9,52.4,44.5,48.6,46.8,42.8,97,82,61,30.08,29.91,1,0,5,0.00
2012-12-26,65.4,50.1,44.3,62.0,47.2,38.3,99,90,62,30.01,29.38,2,0,4,0.92
2012-12-27,50.2,42.5,36.1,38.2,34.0,29.2,86,72,53,30.05,29.64,2,0,4,0.00
2012-12-28,45.0,38.0,28.1,35.4,30.7,25.4,92,76,60,30.18,29.98,1,0,3,0.00
2012-12-29,49.7,43.3,38.6,46.9,38.9,31.1,97,85,66,29.97,29.66,1,0,5,0.55
2012-12-30,45.4,38.0,32.0,31.1,25.2,22.6,73,61,42,30.38,29.95,2,0,4,0.00
2012-12-31,52.3,38.7,26.9,40.2,28.2,22.9,87,68,39,30.37,30.11,1,0,5,0.00
2013-1-1,53.5,50.5,46.7,51.3,46.4,40.1,97,86,74,30.11,29.92,0,0,3,0.12